Time;durP1;ratioP1;P1;durP2;ratioP2;P2;SDS_P1;SDS_P2;PMS_P1;PMS_P2;Temp;Humidity;BMP_temperature;BMP_pressure;BME280_temperature;BME280_humidity;BME280_pressure;Samples;Min_cycle;Max_cycle;Signal;HPM_P1;HPM_P2
2023/12/15 00:01:35;;;;;;;14.38;10.20;;;15.90;82.10;;;;;;4188223;28;20093;-61
2023/12/15 00:04:17;;;;;;;17.40;10.52;;;16.00;82.20;;;;;;4188797;28;20398;-61
2023/12/15 00:06:58;;;;;;;13.45;9.13;;;15.90;82.40;;;;;;4172439;28;20040;-62
2023/12/15 00:09:39;;;;;;;16.85;9.85;;;16.10;82.20;;;;;;4173033;28;20052;-62
2023/12/15 00:12:20;;;;;;;10.95;8.48;;;16.10;82.60;;;;;;4172004;28;20496;-62
2023/12/15 00:15:03;;;;;;;14.18;9.40;;;16.20;81.50;;;;;;4155558;28;20611;-62
2023/12/15 00:17:44;;;;;;;9.50;8.05;;;16.30;81.30;;;;;;4172316;28;20558;-61
2023/12/15 00:20:25;;;;;;;13.98;9.30;;;16.20;81.10;;;;;;4173505;28;20067;-61
2023/12/15 00:23:06;;;;;;;;;;;16.30;81.10;;;;;;4187470;28;20190;-61
2023/12/15 00:25:47;;;;;;;10.98;8.85;;;16.30;81.00;;;;;;4170388;28;20425;-60
2023/12/15 00:28:28;;;;;;;11.43;9.02;;;16.30;81.10;;;;;;4156945;28;20114;-61
2023/12/15 00:31:10;;;;;;;13.55;9.27;;;16.30;81.00;;;;;;4187840;28;20057;-61
2023/12/15 00:33:51;;;;;;;12.95;9.20;;;16.30;80.90;;;;;;4187709;28;20052;-61
2023/12/15 00:36:32;;;;;;;12.38;8.52;;;16.30;80.70;;;;;;4186299;28;20051;-62
2023/12/15 00:39:13;;;;;;;11.27;9.32;;;16.40;80.70;;;;;;4187940;28;20056;-61
2023/12/15 00:41:54;;;;;;;14.13;10.02;;;16.40;80.70;;;;;;4186281;28;20102;-62
2023/12/15 00:44:35;;;;;;;10.20;8.23;;;16.40;80.60;;;;;;4171246;28;20071;-60
2023/12/15 00:47:17;;;;;;;11.23;9.32;;;16.40;80.70;;;;;;4154599;28;20083;-64
2023/12/15 00:49:59;;;;;;;14.45;9.98;;;16.30;80.70;;;;;;4156923;28;20180;-60
2023/12/15 00:52:40;;;;;;;11.52;8.85;;;16.30;82.00;;;;;;4171532;28;20431;-57
2023/12/15 00:55:21;;;;;;;13.70;9.85;;;16.30;80.90;;;;;;4174318;28;20075;-57
2023/12/15 00:58:02;;;;;;;11.65;9.77;;;16.40;80.90;;;;;;4171498;28;20106;-57
2023/12/15 01:00:43;;;;;;;13.93;10.18;;;16.40;80.70;;;;;;4182133;28;20126;-57
2023/12/15 01:03:25;;;;;;;14.93;10.40;;;16.50;80.70;;;;;;4154968;28;20060;-56
2023/12/15 01:06:07;;;;;;;13.30;10.23;;;16.40;80.40;;;;;;4170796;28;20051;-57
2023/12/15 01:08:48;;;;;;;13.73;10.00;;;16.50;80.40;;;;;;4174801;28;20055;-57
2023/12/15 01:11:29;;;;;;;14.63;9.65;;;16.40;80.20;;;;;;4188423;28;20051;-56
2023/12/15 01:14:10;;;;;;;13.57;10.20;;;16.40;80.40;;;;;;4174258;28;20064;-55
2023/12/15 01:16:53;;;;;;;;;;;16.40;80.60;;;;;;4156650;28;20057;-61
2023/12/15 01:19:41;;;;;;;11.90;9.10;;;16.40;81.20;;;;;;4146477;28;19927;-55
2023/12/15 01:22:22;;;;;;;14.05;10.50;;;16.40;81.00;;;;;;4186536;28;20059;-54
2023/12/15 01:25:03;;;;;;;14.80;11.38;;;16.50;80.70;;;;;;4172296;28;20114;-53
2023/12/15 01:27:44;;;;;;;17.42;10.48;;;16.50;80.50;;;;;;4170959;28;20179;-52
2023/12/15 01:30:25;;;;;;;14.18;9.65;;;16.60;80.50;;;;;;4170353;28;20051;-52
2023/12/15 01:33:06;;;;;;;13.38;10.48;;;16.60;80.10;;;;;;4179733;28;20415;-55
2023/12/15 01:35:49;;;;;;;14.38;11.48;;;16.70;80.00;;;;;;4186961;28;20215;-56
2023/12/15 01:38:30;;;;;;;15.07;12.02;;;16.70;79.70;;;;;;4186796;28;20871;-56
2023/12/15 01:41:12;;;;;;;13.50;10.65;;;16.60;79.60;;;;;;4187044;28;20048;-57
2023/12/15 01:43:53;;;;;;;12.93;10.50;;;16.60;79.90;;;;;;4186606;28;20052;-56
2023/12/15 01:46:34;;;;;;;14.80;10.75;;;16.50;80.20;;;;;;4186539;28;20051;-60
2023/12/15 01:49:15;;;;;;;14.93;11.30;;;16.50;80.70;;;;;;4183584;28;20059;-61
2023/12/15 01:51:57;;;;;;;;;;;16.50;80.70;;;;;;4154361;28;20560;-61
2023/12/15 01:54:39;;;;;;;16.10;12.15;;;16.60;80.50;;;;;;4153983;28;19974;-61
2023/12/15 01:57:20;;;;;;;14.65;10.13;;;16.60;81.00;;;;;;4168135;28;20060;-61
2023/12/15 02:00:06;;;;;;;;;;;16.60;79.90;;;;;;4170756;28;20187;-61
2023/12/15 02:02:51;;;;;;;14.88;10.98;;;16.60;80.00;;;;;;4187339;28;20036;-62
2023/12/15 02:05:33;;;;;;;15.02;11.40;;;16.50;80.30;;;;;;4182526;28;20102;-61
2023/12/15 02:08:15;;;;;;;19.25;12.27;;;16.50;80.80;;;;;;4185762;28;20552;-62
2023/12/15 02:10:56;;;;;;;15.45;11.82;;;16.50;80.90;;;;;;4170446;28;20052;-61
2023/12/15 02:13:37;;;;;;;17.63;13.02;;;16.50;80.80;;;;;;4186684;28;20455;-61
2023/12/15 02:16:17;;;;;;;18.13;12.37;;;16.50;80.50;;;;;;4186602;28;20051;-60
2023/12/15 02:18:58;;;;;;;15.75;11.82;;;16.50;80.40;;;;;;4186374;28;20343;-61
2023/12/15 02:21:40;;;;;;;18.17;12.60;;;16.50;80.30;;;;;;4183653;28;20067;-61
2023/12/15 02:24:22;;;;;;;16.27;12.15;;;16.50;80.60;;;;;;4186597;28;20059;-60
2023/12/15 02:27:02;;;;;;;17.90;12.98;;;16.50;81.00;;;;;;4186900;28;20055;-61
2023/12/15 02:29:43;;;;;;;18.67;13.55;;;16.50;80.80;;;;;;4163379;28;20186;-61
2023/12/15 02:32:25;;;;;;;24.23;14.10;;;16.60;80.70;;;;;;4169791;28;20068;-60
2023/12/15 02:35:06;;;;;;;20.05;12.20;;;16.60;80.60;;;;;;4170063;28;20052;-60
2023/12/15 02:37:47;;;;;;;18.40;12.60;;;16.60;80.40;;;;;;4172840;28;20086;-59
2023/12/15 02:40:30;;;;;;;16.67;11.80;;;16.70;81.00;;;;;;4185762;28;20477;-59
2023/12/15 02:43:10;;;;;;;19.00;12.88;;;16.70;80.00;;;;;;4186706;28;20111;-59
2023/12/15 02:45:52;;;;;;;20.35;12.98;;;16.70;80.00;;;;;;4169362;28;20056;-59
2023/12/15 02:48:32;;;;;;;18.13;12.43;;;16.70;80.00;;;;;;4186223;28;20498;-59
2023/12/15 02:51:25;;;;;;;20.38;13.57;;;16.60;80.10;;;;;;4178421;28;20099;-60
2023/12/15 02:54:06;;;;;;;20.13;13.48;;;16.50;80.30;;;;;;4172107;28;20060;-59
2023/12/15 02:56:48;;;;;;;18.70;12.45;;;16.50;80.80;;;;;;4156664;28;20049;-59
2023/12/15 02:59:29;;;;;;;17.77;13.15;;;16.60;81.60;;;;;;4166101;28;20067;-59
2023/12/15 03:02:10;;;;;;;18.08;12.77;;;16.60;80.40;;;;;;4172640;28;20412;-59
2023/12/15 03:04:51;;;;;;;21.20;13.77;;;16.60;80.40;;;;;;4189278;28;20064;-59
2023/12/15 03:07:32;;;;;;;20.77;13.55;;;16.60;80.20;;;;;;4189053;28;20055;-59
2023/12/15 03:10:13;;;;;;;22.38;13.52;;;16.50;80.20;;;;;;4189494;28;20048;-59
2023/12/15 03:12:55;;;;;;;20.95;13.23;;;16.50;80.50;;;;;;4189581;28;20121;-59
2023/12/15 03:15:36;;;;;;;21.80;12.63;;;16.40;80.70;;;;;;4189283;28;20057;-55
2023/12/15 03:18:18;;;;;;;24.05;13.45;;;16.30;81.90;;;;;;4172888;28;20507;-57
2023/12/15 03:21:00;;;;;;;;;;;16.30;81.60;;;;;;4171776;28;20060;-57
2023/12/15 03:23:41;;;;;;;18.58;12.40;;;16.30;81.60;;;;;;4172765;28;20003;-55
2023/12/15 03:26:22;;;;;;;20.70;12.45;;;16.30;81.50;;;;;;4171612;28;20056;-58
2023/12/15 03:29:05;;;;;;;25.25;13.27;;;16.20;81.10;;;;;;4177668;28;20075;-56
2023/12/15 03:31:45;;;;;;;16.40;12.45;;;16.20;81.30;;;;;;4188064;28;20050;-55
2023/12/15 03:34:26;;;;;;;19.27;11.98;;;16.20;81.40;;;;;;4189091;28;20059;-54
2023/12/15 03:37:08;;;;;;;19.38;11.95;;;16.20;81.60;;;;;;4188927;28;20137;-57
2023/12/15 03:39:49;;;;;;;;;;;16.20;82.00;;;;;;4164944;28;20056;-56
2023/12/15 03:42:30;;;;;;;19.23;12.57;;;16.30;82.00;;;;;;4172721;28;20389;-53
2023/12/15 03:45:12;;;;;;;18.38;11.15;;;16.30;81.70;;;;;;4156022;28;20191;-55
2023/12/15 03:47:53;;;;;;;16.35;11.60;;;16.40;81.50;;;;;;4155862;28;20130;-60
2023/12/15 03:50:34;;;;;;;18.02;12.25;;;16.40;81.40;;;;;;4166862;28;20076;-60
2023/12/15 03:53:15;;;;;;;16.35;12.00;;;16.50;81.50;;;;;;4155479;28;20393;-60
2023/12/15 03:55:57;;;;;;;16.30;12.50;;;16.60;81.20;;;;;;4177924;28;20079;-60
2023/12/15 03:58:38;;;;;;;17.02;11.80;;;16.70;81.50;;;;;;4187212;28;20080;-59
2023/12/15 04:01:20;;;;;;;20.60;12.65;;;16.80;80.20;;;;;;4188464;28;20113;-60
2023/12/15 04:04:00;;;;;;;19.92;11.43;;;16.80;79.30;;;;;;4186268;28;20105;-60
2023/12/15 04:06:41;;;;;;;17.98;11.93;;;16.80;80.90;;;;;;4187798;28;20070;-60
2023/12/15 04:09:23;;;;;;;17.20;12.25;;;16.80;79.80;;;;;;4188142;28;20051;-60
2023/12/15 04:12:04;;;;;;;17.55;11.25;;;16.80;79.80;;;;;;4179327;28;20551;-60
2023/12/15 04:14:45;;;;;;;17.10;10.65;;;16.80;79.80;;;;;;4155552;28;20048;-60
2023/12/15 04:17:27;;;;;;;15.18;10.90;;;16.70;80.00;;;;;;4156792;28;20118;-60
2023/12/15 04:20:10;;;;;;;14.30;11.23;;;16.80;80.20;;;;;;4167655;28;20048;-57
2023/12/15 04:22:51;;;;;;;17.50;11.23;;;16.80;79.90;;;;;;4169890;28;20056;-57
2023/12/15 04:25:32;;;;;;;18.50;11.70;;;16.90;80.60;;;;;;4171955;28;20068;-56
2023/12/15 04:28:13;;;;;;;14.65;10.38;;;16.90;79.60;;;;;;4171967;28;20068;-55
2023/12/15 04:30:54;;;;;;;16.58;11.27;;;16.90;79.50;;;;;;4157654;28;20184;-56
2023/12/15 04:33:36;;;;;;;16.33;11.23;;;16.80;80.60;;;;;;4154946;28;20065;-54
2023/12/15 04:36:19;;;;;;;14.90;10.52;;;16.80;79.90;;;;;;4171384;28;20179;-56
2023/12/15 04:39:00;;;;;;;16.08;11.35;;;16.90;79.70;;;;;;4174300;28;20423;-55
2023/12/15 04:41:40;;;;;;;16.50;10.10;;;16.90;79.40;;;;;;4188152;28;20101;-57
2023/12/15 04:44:21;;;;;;;14.07;10.05;;;16.90;79.50;;;;;;4171845;28;20113;-58
2023/12/15 04:47:03;;;;;;;17.70;11.15;;;16.90;79.60;;;;;;4182711;28;20058;-61
2023/12/15 04:49:45;;;;;;;19.77;10.27;;;16.90;79.70;;;;;;4180445;28;20534;-60
2023/12/15 04:52:26;;;;;;;16.67;9.48;;;16.90;79.60;;;;;;4187575;28;20110;-60
2023/12/15 04:55:08;;;;;;;16.05;10.10;;;16.90;79.40;;;;;;4187686;28;20052;-61
2023/12/15 04:57:48;;;;;;;13.30;9.82;;;16.90;79.60;;;;;;4187106;28;20499;-60
2023/12/15 05:00:30;;;;;;;15.15;9.32;;;16.90;79.70;;;;;;4154646;28;20056;-60
2023/12/15 05:03:11;;;;;;;14.45;9.32;;;16.90;79.60;;;;;;4183843;28;20123;-60
2023/12/15 05:05:53;;;;;;;16.00;10.93;;;16.90;79.30;;;;;;4186832;28;20055;-61
2023/12/15 05:08:34;;;;;;;14.55;9.80;;;17.00;79.30;;;;;;4186754;28;20187;-59
2023/12/15 05:11:16;;;;;;;14.50;9.95;;;16.90;79.10;;;;;;4187085;28;20052;-60
2023/12/15 05:13:57;;;;;;;19.08;10.43;;;16.90;79.40;;;;;;4169993;28;20059;-60
2023/12/15 05:16:39;;;;;;;15.85;9.57;;;16.80;79.70;;;;;;4170266;28;20195;-60
2023/12/15 05:19:20;;;;;;;15.35;10.10;;;16.90;79.80;;;;;;4168585;28;20400;-59
2023/12/15 05:22:03;;;;;;;22.45;9.70;;;16.90;79.60;;;;;;4171985;28;20063;-59
2023/12/15 05:24:44;;;;;;;14.02;8.70;;;16.90;79.40;;;;;;4170467;28;20059;-54
2023/12/15 05:27:25;;;;;;;10.82;7.88;;;17.00;79.20;;;;;;4154640;28;20056;-55
2023/12/15 05:30:07;;;;;;;13.00;8.48;;;16.90;79.30;;;;;;4159206;28;20056;-56
2023/12/15 05:32:49;;;;;;;15.65;9.13;;;16.90;79.40;;;;;;4153882;28;20563;-54
2023/12/15 05:35:30;;;;;;;;;;;16.80;79.70;;;;;;4154372;28;20607;-55
2023/12/15 05:38:12;;;;;;;12.65;8.80;;;16.80;79.80;;;;;;4156636;28;19928;-56
2023/12/15 05:40:53;;;;;;;10.98;8.18;;;16.70;80.00;;;;;;4170410;28;20059;-56
2023/12/15 05:43:35;;;;;;;17.67;8.18;;;16.60;80.10;;;;;;4186454;28;20052;-56
2023/12/15 05:46:17;;;;;;;11.90;7.70;;;16.60;80.20;;;;;;4185812;28;20157;-54
2023/12/15 05:48:58;;;;;;;18.40;8.55;;;16.50;80.70;;;;;;4185980;28;20566;-56
2023/12/15 05:51:40;;;;;;;18.90;8.50;;;16.50;81.20;;;;;;4181780;28;20444;-56
2023/12/15 05:54:22;;;;;;;13.05;7.90;;;16.50;81.10;;;;;;4170662;28;20106;-55
2023/12/15 05:57:03;;;;;;;12.48;8.15;;;16.60;81.00;;;;;;4170602;28;20185;-55
2023/12/15 05:59:44;;;;;;;9.55;7.30;;;16.60;80.80;;;;;;4168076;28;20171;-56
2023/12/15 06:02:25;;;;;;;12.38;7.25;;;16.60;80.70;;;;;;4171399;28;20102;-57
2023/12/15 06:05:06;;;;;;;15.30;7.70;;;16.70;80.60;;;;;;4168405;28;20075;-58
2023/12/15 06:07:47;;;;;;;;;;;16.70;80.30;;;;;;4174699;28;20106;-60
2023/12/15 06:10:29;;;;;;;17.48;8.07;;;16.80;80.30;;;;;;4173158;28;19935;-60
2023/12/15 06:13:11;;;;;;;10.55;7.00;;;16.80;80.40;;;;;;4186986;28;20224;-59
2023/12/15 06:15:52;;;;;;;14.10;7.50;;;16.80;80.10;;;;;;4187153;28;20830;-63
2023/12/15 06:18:32;;;;;;;19.42;8.18;;;16.70;80.20;;;;;;4182267;28;20118;-63
2023/12/15 06:21:21;;;;;;;12.73;7.85;;;16.80;80.80;;;;;;4181967;28;20175;-63
2023/12/15 06:24:02;;;;;;;13.90;7.70;;;16.90;80.40;;;;;;4186736;28;20113;-63
2023/12/15 06:26:45;;;;;;;15.68;8.70;;;16.90;80.10;;;;;;4186352;28;20052;-59
2023/12/15 06:29:26;;;;;;;14.65;8.05;;;16.90;79.80;;;;;;4188429;28;20043;-59
2023/12/15 06:32:10;;;;;;;17.33;7.57;;;16.90;79.40;;;;;;4177185;28;20449;-62
2023/12/15 06:34:51;;;;;;;14.15;7.80;;;16.80;79.60;;;;;;4173279;28;20187;-62
2023/12/15 06:37:32;;;;;;;15.82;7.72;;;16.80;79.90;;;;;;4181724;28;20067;-63
2023/12/15 06:40:14;;;;;;;14.30;7.72;;;16.90;79.90;;;;;;4179528;28;20097;-63
2023/12/15 06:42:56;;;;;;;12.52;8.15;;;16.90;79.60;;;;;;4189345;28;20064;-62
2023/12/15 06:45:37;;;;;;;15.13;7.53;;;16.90;79.50;;;;;;4188892;28;20133;-61
2023/12/15 06:48:18;;;;;;;19.77;8.02;;;16.90;79.50;;;;;;4189105;28;20047;-61
2023/12/15 06:50:59;;;;;;;14.40;8.23;;;16.90;79.80;;;;;;4182326;28;20059;-62
2023/12/15 06:53:41;;;;;;;14.82;8.10;;;16.80;80.10;;;;;;4187995;28;20064;-61
2023/12/15 06:56:22;;;;;;;;;;;16.80;80.10;;;;;;4189624;28;20060;-60
2023/12/15 06:59:04;;;;;;;14.77;7.13;;;16.90;80.10;;;;;;4172259;28;19928;-61
2023/12/15 07:01:45;;;;;;;12.20;7.88;;;16.90;80.00;;;;;;4173684;28;20402;-61
2023/12/15 07:04:26;;;;;;;14.65;7.55;;;16.80;79.90;;;;;;4175239;28;20064;-64
2023/12/15 07:07:07;;;;;;;14.45;7.45;;;16.80;80.00;;;;;;4186205;28;20059;-66
2023/12/15 07:09:48;;;;;;;17.40;9.02;;;16.80;80.20;;;;;;4187882;28;20068;-66
2023/12/15 07:12:29;;;;;;;19.13;7.45;;;16.80;78.80;;;;;;4189120;28;20064;-66
2023/12/15 07:15:12;;;;;;;20.35;8.75;;;16.80;78.80;;;;;;4188805;28;20063;-64
2023/12/15 07:17:53;;;;;;;20.80;8.32;;;16.80;78.70;;;;;;4189189;28;20542;-64
2023/12/15 07:20:35;;;;;;;17.02;8.70;;;16.80;78.50;;;;;;4173699;28;20142;-64
2023/12/15 07:23:16;;;;;;;19.73;8.85;;;16.70;78.60;;;;;;4185187;28;20043;-64
2023/12/15 07:25:57;;;;;;;14.90;8.70;;;16.80;78.40;;;;;;4169356;28;20044;-64
2023/12/15 07:28:37;;;;;;;21.13;8.43;;;16.80;78.20;;;;;;4169173;28;20059;-64
2023/12/15 07:31:20;;;;;;;20.55;8.32;;;16.80;77.90;;;;;;4188073;28;20060;-59
2023/12/15 07:34:01;;;;;;;13.70;7.15;;;16.80;77.40;;;;;;4188990;28;20129;-60
2023/12/15 07:36:42;;;;;;;15.63;7.50;;;16.70;77.40;;;;;;4187621;28;20146;-60
2023/12/15 07:39:24;;;;;;;12.55;7.18;;;16.70;77.40;;;;;;4186321;28;20094;-64
2023/12/15 07:42:05;;;;;;;15.00;8.33;;;16.60;77.90;;;;;;4186499;28;20061;-64
2023/12/15 07:44:46;;;;;;;16.02;8.02;;;16.60;77.50;;;;;;4175201;28;20600;-64
2023/12/15 07:47:28;;;;;;;;;;;16.60;77.50;;;;;;4186615;28;20581;-64
2023/12/15 07:50:09;;;;;;;15.38;7.90;;;16.70;76.60;;;;;;4171650;28;19931;-64
2023/12/15 07:52:51;;;;;;;14.77;7.45;;;16.70;76.20;;;;;;4182762;28;20060;-64
2023/12/15 07:55:31;;;;;;;;;;;16.70;75.90;;;;;;4172278;28;20060;-64
2023/12/15 07:58:12;;;;;;;14.50;7.13;;;16.70;76.00;;;;;;4178469;28;19928;-60
2023/12/15 08:00:53;;;;;;;19.40;7.35;;;16.70;75.70;;;;;;4187860;28;20087;-59
2023/12/15 08:03:36;;;;;;;18.60;7.80;;;16.70;75.90;;;;;;4186769;28;20056;-59
2023/12/15 08:06:18;;;;;;;17.90;8.15;;;16.70;76.60;;;;;;4183397;28;20056;-59
2023/12/15 08:08:59;;;;;;;13.70;6.82;;;16.70;75.70;;;;;;4175947;28;20059;-59
2023/12/15 08:11:40;;;;;;;14.05;7.20;;;16.70;75.70;;;;;;4156349;28;20052;-59
2023/12/15 08:14:21;;;;;;;16.25;6.95;;;16.70;75.80;;;;;;4171515;28;20110;-59
2023/12/15 08:17:02;;;;;;;13.73;7.15;;;16.70;75.70;;;;;;4171519;28;20048;-59
2023/12/15 08:19:45;;;;;;;;;;;16.70;75.30;;;;;;4181281;28;20051;-60
2023/12/15 08:22:26;;;;;;;13.52;6.65;;;16.80;74.90;;;;;;4170571;28;19948;-60
2023/12/15 08:25:08;;;;;;;13.32;6.60;;;16.70;74.80;;;;;;4179386;28;20060;-55
2023/12/15 08:27:49;;;;;;;17.10;7.00;;;16.70;74.90;;;;;;4167536;28;20504;-55
2023/12/15 08:30:30;;;;;;;14.32;6.82;;;16.60;75.10;;;;;;4171469;28;20055;-53
2023/12/15 08:33:11;;;;;;;14.23;6.30;;;16.50;75.30;;;;;;4186298;28;20059;-58
2023/12/15 08:35:54;;;;;;;14.82;6.25;;;16.50;75.50;;;;;;4187543;28;20048;-52
2023/12/15 08:38:35;;;;;;;13.05;5.95;;;16.50;76.00;;;;;;4186748;28;20090;-53
2023/12/15 08:41:16;;;;;;;14.35;6.88;;;16.40;75.90;;;;;;4183944;28;20052;-58
2023/12/15 08:43:57;;;;;;;14.05;6.57;;;16.50;76.10;;;;;;4187612;28;20496;-58
2023/12/15 08:46:37;;;;;;;12.43;6.25;;;16.50;76.10;;;;;;4185976;28;20059;-54
2023/12/15 08:49:18;;;;;;;12.80;5.80;;;16.50;75.70;;;;;;4171655;28;20052;-58
2023/12/15 08:52:01;;;;;;;14.82;5.75;;;16.50;75.50;;;;;;4186344;28;20113;-62
2023/12/15 08:54:42;;;;;;;16.83;6.28;;;16.60;75.50;;;;;;4186409;28;20141;-59
2023/12/15 08:57:23;;;;;;;20.30;6.63;;;16.60;75.60;;;;;;4184343;28;20129;-60
2023/12/15 09:00:05;;;;;;;18.80;6.45;;;16.50;75.30;;;;;;4182127;28;20190;-55
2023/12/15 09:02:52;;;;;;;17.10;6.88;;;16.50;76.20;;;;;;4170965;28;20052;-58
2023/12/15 09:05:33;;;;;;;16.25;5.78;;;16.50;75.40;;;;;;4170393;28;20266;-58
2023/12/15 09:08:28;;;;;;;14.65;5.75;;;16.40;75.30;;;;;;4158202;28;20067;-58
2023/12/15 09:11:11;;;;;;;20.33;6.75;;;16.40;75.60;;;;;;4167825;28;20502;-59
2023/12/15 09:13:52;;;;;;;17.00;6.15;;;16.30;75.90;;;;;;4182892;28;20055;-59
2023/12/15 09:16:33;;;;;;;18.85;5.90;;;16.20;75.90;;;;;;4185066;28;20070;-59
2023/12/15 09:19:14;;;;;;;17.25;6.55;;;16.10;76.00;;;;;;4173953;28;20063;-59
2023/12/15 09:21:55;;;;;;;15.88;5.38;;;16.10;76.10;;;;;;4174738;28;20055;-59
2023/12/15 09:24:38;;;;;;;15.80;5.33;;;16.00;76.30;;;;;;4179388;28;20489;-61
2023/12/15 09:27:19;;;;;;;13.45;5.68;;;15.90;76.80;;;;;;4187213;28;20082;-61
2023/12/15 09:30:00;;;;;;;13.45;5.53;;;15.80;77.40;;;;;;4165228;28;20059;-60
2023/12/15 09:32:42;;;;;;;16.73;6.22;;;15.80;77.10;;;;;;4170202;28;20403;-63
2023/12/15 09:35:24;;;;;;;13.18;4.68;;;15.70;77.30;;;;;;4181520;28;20097;-56
2023/12/15 09:38:06;;;;;;;13.38;5.15;;;15.70;77.40;;;;;;4184235;28;20087;-54
2023/12/15 09:40:49;;;;;;;17.13;4.63;;;15.60;77.50;;;;;;4171692;28;20622;-56
2023/12/15 09:43:30;;;;;;;14.80;5.13;;;15.60;77.90;;;;;;4167344;28;20453;-56
2023/12/15 09:46:12;;;;;;;15.13;4.75;;;15.50;77.80;;;;;;4172682;28;20067;-56
2023/12/15 09:48:53;;;;;;;14.00;5.35;;;15.50;78.10;;;;;;4185294;28;20067;-56
2023/12/15 09:51:39;;;;;;;18.27;5.70;;;15.50;78.20;;;;;;4169756;28;20075;-55
2023/12/15 09:54:21;;;;;;;20.55;5.50;;;15.40;78.10;;;;;;4169269;28;20051;-56
2023/12/15 09:57:03;;;;;;;17.95;5.75;;;15.40;77.90;;;;;;4180062;28;20093;-57
2023/12/15 09:59:45;;;;;;;18.77;4.80;;;15.30;77.90;;;;;;4185137;28;20063;-57
2023/12/15 10:02:25;;;;;;;11.85;4.68;;;15.30;78.20;;;;;;4171139;28;20514;-57
2023/12/15 10:05:10;;;;;;;18.48;5.05;;;15.30;78.50;;;;;;4168497;28;20051;-57
2023/12/15 10:07:52;;;;;;;14.48;4.38;;;15.20;78.70;;;;;;4169109;28;20066;-56
2023/12/15 10:10:35;;;;;;;18.27;5.00;;;15.20;78.70;;;;;;4186176;28;20093;-61
2023/12/15 10:13:17;;;;;;;18.92;5.68;;;15.20;79.70;;;;;;4186114;28;20075;-54
2023/12/15 10:15:59;;;;;;;15.60;3.83;;;15.10;79.30;;;;;;4164764;28;20056;-57
2023/12/15 10:18:40;;;;;;;27.90;5.70;;;15.10;79.60;;;;;;4182497;28;20067;-60
2023/12/15 10:21:26;;;;;;;18.98;3.90;;;15.10;80.00;;;;;;4170006;28;20178;-57
2023/12/15 10:24:19;;;;;;;17.30;4.25;;;15.10;80.40;;;;;;4170087;28;20064;-57
2023/12/15 10:27:02;;;;;;;13.88;3.92;;;15.10;80.60;;;;;;4168075;28;20055;-59
2023/12/15 10:29:44;;;;;;;16.95;5.57;;;15.10;80.90;;;;;;4169115;28;20048;-59
2023/12/15 10:32:26;;;;;;;13.70;3.92;;;15.00;81.30;;;;;;4170120;28;21970;-63
2023/12/15 10:35:09;;;;;;;13.45;5.00;;;15.00;81.40;;;;;;4171946;28;20186;-54
2023/12/15 10:37:51;;;;;;;14.30;4.80;;;15.00;81.50;;;;;;4186294;28;20114;-54
2023/12/15 10:40:32;;;;;;;14.50;4.25;;;15.00;81.60;;;;;;4186322;28;20129;-56
2023/12/15 10:43:15;;;;;;;18.17;5.38;;;15.00;81.70;;;;;;4156053;28;20073;-56
2023/12/15 10:45:59;;;;;;;19.10;5.30;;;15.00;81.90;;;;;;4159588;28;20060;-56
2023/12/15 10:48:44;;;;;;;19.83;3.72;;;15.00;81.90;;;;;;4184581;28;20055;-56
2023/12/15 10:51:28;;;;;;;18.73;4.43;;;14.90;82.00;;;;;;4185092;28;20052;-60
2023/12/15 10:54:10;;;;;;;13.48;3.90;;;14.90;82.10;;;;;;4185789;28;20129;-60
2023/12/15 10:56:51;;;;;;;18.23;4.10;;;14.90;82.40;;;;;;4155636;28;20053;-56
2023/12/15 10:59:32;;;;;;;;;;;14.90;82.80;;;;;;4186347;28;20187;-57
2023/12/15 11:02:18;;;;;;;15.20;4.25;;;14.90;82.70;;;;;;4185364;28;19930;-59
2023/12/15 11:05:00;;;;;;;17.42;4.55;;;15.00;82.80;;;;;;4183437;28;20514;-60
2023/12/15 11:07:42;;;;;;;15.93;4.60;;;15.00;82.60;;;;;;4186662;28;20055;-60
2023/12/15 11:10:24;;;;;;;20.80;4.85;;;15.10;82.60;;;;;;4186193;28;20059;-60
2023/12/15 11:13:25;;;;;;;17.00;4.80;;;15.10;82.50;;;;;;4172318;28;20110;-59
2023/12/15 11:16:06;;;;;;;20.70;4.38;;;15.10;82.30;;;;;;4171855;28;20060;-55
2023/12/15 11:18:51;;;;;;;14.90;3.97;;;15.10;82.50;;;;;;4172727;28;20498;-54
2023/12/15 11:21:32;;;;;;;12.38;3.92;;;15.20;82.80;;;;;;4157922;28;20103;-56
2023/12/15 11:24:15;;;;;;;13.13;4.65;;;15.30;82.80;;;;;;4178385;28;20066;-57
2023/12/15 11:26:56;;;;;;;17.02;4.72;;;15.40;82.30;;;;;;4171190;28;20056;-55
2023/12/15 11:29:37;;;;;;;17.60;3.85;;;15.50;81.60;;;;;;4164914;28;20056;-55
2023/12/15 11:32:33;;;;;;;17.10;4.15;;;15.50;81.30;;;;;;4189011;28;20151;-55
2023/12/15 11:35:29;;;;;;;16.05;4.03;;;15.60;82.00;;;;;;4186115;28;20081;-55
2023/12/15 11:38:11;;;;;;;19.48;4.28;;;15.50;80.60;;;;;;4170662;28;20063;-58
2023/12/15 11:40:53;;;;;;;15.23;4.72;;;15.50;80.90;;;;;;4184759;28;20052;-56
2023/12/15 11:43:36;;;;;;;;;;;15.50;81.00;;;;;;4186699;28;20170;-56
2023/12/15 11:46:17;;;;;;;12.98;3.38;;;15.60;80.60;;;;;;4183277;28;19969;-56
2023/12/15 11:48:58;;;;;;;24.38;4.78;;;15.70;80.70;;;;;;4188390;28;20079;-56
2023/12/15 11:51:40;;;;;;;15.68;3.70;;;15.70;80.60;;;;;;4185969;28;20079;-55
2023/12/15 11:54:22;;;;;;;20.98;3.83;;;15.70;80.30;;;;;;4182219;28;20074;-55
2023/12/15 11:57:05;;;;;;;;;;;15.70;80.40;;;;;;4187474;28;20109;-59
2023/12/15 11:59:46;;;;;;;17.48;3.65;;;15.70;80.30;;;;;;4177686;28;19974;-61
2023/12/15 12:02:29;;;;;;;20.63;4.68;;;15.70;80.60;;;;;;4183620;28;20051;-59
2023/12/15 12:05:11;;;;;;;17.85;4.53;;;15.70;80.60;;;;;;4186471;28;20060;-60
2023/12/15 12:07:53;;;;;;;19.13;4.97;;;15.80;80.70;;;;;;4186263;28;20060;-60
2023/12/15 12:10:36;;;;;;;16.67;5.00;;;15.80;80.40;;;;;;4188412;28;20407;-60
2023/12/15 12:13:17;;;;;;;17.05;3.75;;;15.90;80.30;;;;;;4176038;28;20333;-60
2023/12/15 12:15:58;;;;;;;16.35;4.57;;;15.90;80.40;;;;;;4179958;28;20056;-59
2023/12/15 12:18:39;;;;;;;17.73;4.05;;;15.80;80.40;;;;;;4170274;28;20068;-60
2023/12/15 12:21:21;;;;;;;14.00;3.47;;;15.80;80.20;;;;;;4187774;28;20052;-60
2023/12/15 12:24:04;;;;;;;19.48;4.60;;;15.80;80.40;;;;;;4186977;28;20534;-60
2023/12/15 12:26:46;;;;;;;18.52;4.22;;;15.80;80.70;;;;;;4175015;28;20511;-56
2023/12/15 12:29:30;;;;;;;;;;;15.80;80.70;;;;;;4168447;28;20199;-56
2023/12/15 12:32:11;;;;;;;21.38;5.25;;;15.70;80.80;;;;;;4154720;28;20066;-56
2023/12/15 12:34:52;;;;;;;27.08;5.85;;;15.70;80.90;;;;;;4186465;28;20063;-56
2023/12/15 12:37:34;;;;;;;14.65;4.25;;;15.70;81.20;;;;;;4187880;28;20482;-59
2023/12/15 12:40:16;;;;;;;21.25;4.43;;;15.60;81.20;;;;;;4187962;28;20048;-59
2023/12/15 12:42:58;;;;;;;20.08;4.53;;;15.60;81.50;;;;;;4173879;28;20407;-59
2023/12/15 12:45:39;;;;;;;21.58;5.45;;;15.60;81.50;;;;;;4187152;28;20407;-59
2023/12/15 12:48:20;;;;;;;16.63;4.15;;;15.50;81.60;;;;;;4198091;28;20101;-59
2023/12/15 12:51:01;;;;;;;24.48;4.82;;;15.50;81.80;;;;;;4187021;28;20087;-60
2023/12/15 12:53:42;;;;;;;18.42;4.47;;;15.40;82.00;;;;;;4172383;28;20223;-60
2023/12/15 12:56:24;;;;;;;22.33;3.72;;;15.50;82.20;;;;;;4172643;28;20048;-56
2023/12/15 12:59:06;;;;;;;23.45;4.55;;;15.40;82.30;;;;;;4182257;28;20072;-55
2023/12/15 13:01:47;;;;;;;21.77;5.07;;;15.30;82.20;;;;;;4176922;28;20060;-57
2023/12/15 13:04:28;;;;;;;20.70;5.53;;;15.30;82.10;;;;;;4186407;28;20055;-56
2023/12/15 13:07:09;;;;;;;16.95;4.75;;;15.30;82.10;;;;;;4175549;28;20052;-56
2023/12/15 13:09:51;;;;;;;25.33;4.75;;;15.20;82.00;;;;;;4187501;28;20379;-56
2023/12/15 13:12:34;;;;;;;22.13;5.35;;;15.20;82.00;;;;;;4179494;28;20052;-60
2023/12/15 13:15:15;;;;;;;21.88;4.97;;;15.20;82.00;;;;;;4186631;28;20055;-59
2023/12/15 13:17:59;;;;;;;19.60;5.30;;;15.10;81.90;;;;;;4187222;28;20510;-59
2023/12/15 13:20:40;;;;;;;23.65;4.55;;;15.20;82.10;;;;;;4184241;28;20060;-59
2023/12/15 13:23:22;;;;;;;9.85;4.00;;;15.10;82.30;;;;;;4187093;28;20548;-60
2023/12/15 13:26:03;;;;;;;;;;;15.10;82.50;;;;;;4187001;28;20178;-59
2023/12/15 13:28:45;;;;;;;11.93;2.92;;;15.10;82.50;;;;;;4185897;28;19931;-60
2023/12/15 13:31:27;;;;;;;13.15;4.00;;;15.00;82.70;;;;;;4187188;28;20427;-59
2023/12/15 13:34:09;;;;;;;18.77;3.55;;;15.00;82.70;;;;;;4186221;28;20526;-55
2023/12/15 13:36:50;;;;;;;13.00;3.03;;;15.00;82.60;;;;;;4186699;28;20114;-55
2023/12/15 13:39:31;;;;;;;16.10;5.22;;;15.00;82.60;;;;;;4183745;28;20769;-59
2023/12/15 13:42:12;;;;;;;13.18;4.32;;;15.00;82.60;;;;;;4168929;28;20048;-59
2023/12/15 13:44:54;;;;;;;23.17;4.85;;;14.90;82.50;;;;;;4179866;28;20066;-59
2023/12/15 13:47:35;;;;;;;17.88;4.85;;;14.90;82.70;;;;;;4170370;28;20052;-59
2023/12/15 13:50:20;;;;;;;15.48;4.00;;;14.90;82.90;;;;;;4162103;28;20059;-55
2023/12/15 13:53:02;;;;;;;14.15;3.78;;;14.90;82.90;;;;;;4185288;28;20067;-56